THY34 LTFM-LTAI
Flight info
| Callsign | THY34 |
|---|---|
| Flight time | 1h 4m |
| Altitude | 37000 |
| Route | RATVU1D/35L RATVU UT35 BABSA |
| Aircraft | B772/H-SDE2E3FGHIJ5LORVWXY/AA6BA4 |
Departure
| Time | 2026-05-05 20:31 |
|---|---|
| Airport | İstanbul Airport (LTFM) |
Arrival
| Time | 2026-05-05 21:35 |
|---|---|
| Airport | Antalya International Airport (LTAI) |
| Time | Latitude | Longitude | Altitude | Speed | Heading |
|---|---|---|---|---|---|
| 2026-05-05 20:15 | 41.26006 | 28.73546 | 341 ft | 0 kts | 107° |
| 2026-05-05 20:22 | 41.26007 | 28.73545 | 341 ft | 1 kts | 107° |
| 2026-05-05 20:23 | 41.26011 | 28.73526 | 341 ft | 2 kts | 108° |
| 2026-05-05 20:23 | 41.26015 | 28.73511 | 341 ft | 0 kts | 107° |
| 2026-05-05 20:23 | 41.26018 | 28.73495 | 341 ft | 2 kts | 90° |
| 2026-05-05 20:23 | 41.26015 | 28.73475 | 341 ft | 2 kts | 65° |
| 2026-05-05 20:24 | 41.26007 | 28.73459 | 341 ft | 2 kts | 42° |
| 2026-05-05 20:24 | 41.25995 | 28.73448 | 341 ft | 1 kts | 20° |
| 2026-05-05 20:24 | 41.25990 | 28.73447 | 341 ft | 0 kts | 17° |
| 2026-05-05 20:26 | 41.25991 | 28.73447 | 341 ft | 0 kts | 17° |
| 2026-05-05 20:26 | 41.26007 | 28.73453 | 341 ft | 4 kts | 16° |
| 2026-05-05 20:26 | 41.26053 | 28.73471 | 341 ft | 8 kts | 16° |
| 2026-05-05 20:26 | 41.26122 | 28.73497 | 340 ft | 11 kts | 16° |
| 2026-05-05 20:27 | 41.26203 | 28.73475 | 341 ft | 13 kts | 302° |
| 2026-05-05 20:27 | 41.26209 | 28.73340 | 341 ft | 15 kts | 268° |
| 2026-05-05 20:27 | 41.26205 | 28.73184 | 341 ft | 17 kts | 270° |
| 2026-05-05 20:27 | 41.26205 | 28.73069 | 341 ft | 10 kts | 271° |
| 2026-05-05 20:28 | 41.26205 | 28.72978 | 341 ft | 0 kts | 269° |
| 2026-05-05 20:28 | 41.26205 | 28.72976 | 341 ft | 1 kts | 271° |
| 2026-05-05 20:28 | 41.26205 | 28.72968 | 341 ft | 0 kts | 271° |
| 2026-05-05 20:28 | 41.26205 | 28.72957 | 341 ft | 2 kts | 271° |
| 2026-05-05 20:29 | 41.26205 | 28.72914 | 341 ft | 6 kts | 269° |
| 2026-05-05 20:29 | 41.26203 | 28.72838 | 341 ft | 9 kts | 268° |
| 2026-05-05 20:29 | 41.26201 | 28.72734 | 341 ft | 12 kts | 269° |
| 2026-05-05 20:29 | 41.26200 | 28.72607 | 341 ft | 6 kts | 273° |
| 2026-05-05 20:30 | 41.26221 | 28.72548 | 341 ft | 8 kts | 329° |
| 2026-05-05 20:30 | 41.26279 | 28.72528 | 341 ft | 0 kts | 353° |
| 2026-05-05 20:30 | 41.26392 | 28.72522 | 341 ft | 50 kts | 359° |
| 2026-05-05 20:30 | 41.27048 | 28.72506 | 341 ft | 134 kts | 359° |
| 2026-05-05 20:31 | 41.28172 | 28.72491 | 649 ft | 173 kts | 358° |
| 2026-05-05 20:31 | 41.29353 | 28.72436 | 1506 ft | 174 kts | 355° |
| 2026-05-05 20:31 | 41.30572 | 28.72302 | 2304 ft | 188 kts | 355° |
| 2026-05-05 20:31 | 41.31903 | 28.72344 | 2894 ft | 199 kts | 6° |
| 2026-05-05 20:32 | 41.33338 | 28.72471 | 3512 ft | 212 kts | 2° |
| 2026-05-05 20:32 | 41.34845 | 28.72470 | 4102 ft | 226 kts | 354° |
| 2026-05-05 20:32 | 41.36381 | 28.71820 | 4655 ft | 243 kts | 332° |
| 2026-05-05 20:32 | 41.37632 | 28.70257 | 5433 ft | 253 kts | 307° |
| 2026-05-05 20:33 | 41.38260 | 28.68055 | 6192 ft | 265 kts | 281° |
| 2026-05-05 20:33 | 41.38252 | 28.65557 | 7005 ft | 272 kts | 271° |
| 2026-05-05 20:33 | 41.38156 | 28.63044 | 7768 ft | 276 kts | 272° |
| 2026-05-05 20:33 | 41.38071 | 28.60514 | 8518 ft | 280 kts | 267° |
| 2026-05-05 20:34 | 41.37426 | 28.58038 | 9244 ft | 294 kts | 242° |
| 2026-05-05 20:34 | 41.35990 | 28.56086 | 9930 ft | 305 kts | 215° |
| 2026-05-05 20:34 | 41.33974 | 28.55063 | 10470 ft | 317 kts | 188° |
| 2026-05-05 20:34 | 41.31742 | 28.54977 | 10818 ft | 334 kts | 177° |
| 2026-05-05 20:35 | 41.29352 | 28.55128 | 11201 ft | 350 kts | 174° |
| 2026-05-05 20:35 | 41.26895 | 28.55731 | 11585 ft | 365 kts | 162° |
| 2026-05-05 20:35 | 41.24524 | 28.56994 | 11960 ft | 378 kts | 150° |
| 2026-05-05 20:35 | 41.22297 | 28.58966 | 12316 ft | 390 kts | 137° |
| 2026-05-05 20:36 | 41.20273 | 28.61396 | 12907 ft | 397 kts | 134° |
| 2026-05-05 20:36 | 41.18257 | 28.63930 | 13700 ft | 401 kts | 133° |
| 2026-05-05 20:36 | 41.16230 | 28.66495 | 14476 ft | 405 kts | 133° |
| 2026-05-05 20:36 | 41.14179 | 28.69097 | 15305 ft | 409 kts | 133° |
| 2026-05-05 20:37 | 41.12280 | 28.71899 | 16112 ft | 409 kts | 124° |
| 2026-05-05 20:37 | 41.10686 | 28.75001 | 16911 ft | 411 kts | 120° |
| 2026-05-05 20:37 | 41.09134 | 28.78159 | 17699 ft | 414 kts | 120° |
| 2026-05-05 20:37 | 41.07547 | 28.81391 | 18490 ft | 418 kts | 121° |
| 2026-05-05 20:38 | 41.05890 | 28.84522 | 19253 ft | 423 kts | 127° |
| 2026-05-05 20:38 | 41.03827 | 28.87351 | 19960 ft | 430 kts | 137° |
| 2026-05-05 20:38 | 41.01393 | 28.89693 | 20686 ft | 436 kts | 147° |
| 2026-05-05 20:38 | 40.98626 | 28.91483 | 21397 ft | 442 kts | 158° |
| 2026-05-05 20:39 | 40.95683 | 28.92619 | 22052 ft | 449 kts | 168° |
| 2026-05-05 20:39 | 40.92561 | 28.93076 | 22734 ft | 453 kts | 178° |
| 2026-05-05 20:39 | 40.89390 | 28.92849 | 23423 ft | 457 kts | 185° |
| 2026-05-05 20:39 | 40.86218 | 28.92531 | 24056 ft | 461 kts | 182° |
| 2026-05-05 20:40 | 40.83015 | 28.92356 | 24639 ft | 465 kts | 181° |
| 2026-05-05 20:40 | 40.79756 | 28.92306 | 25223 ft | 470 kts | 179° |
| 2026-05-05 20:40 | 40.76494 | 28.92347 | 25768 ft | 475 kts | 178° |
| 2026-05-05 20:40 | 40.73180 | 28.92454 | 26331 ft | 479 kts | 178° |
| 2026-05-05 20:41 | 40.69852 | 28.92608 | 26899 ft | 483 kts | 177° |
| 2026-05-05 20:41 | 40.66445 | 28.92797 | 27448 ft | 488 kts | 176° |
| 2026-05-05 20:41 | 40.63056 | 28.93010 | 27957 ft | 492 kts | 176° |
| 2026-05-05 20:41 | 40.59626 | 28.93302 | 28489 ft | 495 kts | 172° |
| 2026-05-05 20:42 | 40.56209 | 28.94169 | 28984 ft | 498 kts | 163° |
| 2026-05-05 20:42 | 40.52885 | 28.95731 | 29502 ft | 500 kts | 154° |
| 2026-05-05 20:42 | 40.49784 | 28.97948 | 30198 ft | 497 kts | 146° |
| 2026-05-05 20:42 | 40.46909 | 29.00405 | 31011 ft | 492 kts | 144° |
| 2026-05-05 20:43 | 40.44069 | 29.02862 | 31720 ft | 490 kts | 144° |
| 2026-05-05 20:43 | 40.41219 | 29.05318 | 32296 ft | 490 kts | 145° |
| 2026-05-05 20:43 | 40.38356 | 29.07775 | 32797 ft | 492 kts | 145° |
| 2026-05-05 20:43 | 40.35473 | 29.10242 | 33347 ft | 492 kts | 145° |
| 2026-05-05 20:44 | 40.32607 | 29.12686 | 33903 ft | 492 kts | 145° |
| 2026-05-05 20:44 | 40.29760 | 29.15108 | 34416 ft | 492 kts | 146° |
| 2026-05-05 20:44 | 40.26881 | 29.17554 | 34844 ft | 492 kts | 146° |
| 2026-05-05 20:44 | 40.24034 | 29.19968 | 35286 ft | 492 kts | 146° |
| 2026-05-05 20:45 | 40.18185 | 29.24603 | 36017 ft | 491 kts | 154° |
| 2026-05-05 20:45 | 40.15041 | 29.26268 | 36404 ft | 492 kts | 159° |
| 2026-05-05 20:45 | 40.11820 | 29.27812 | 36750 ft | 494 kts | 160° |
| 2026-05-05 20:46 | 40.08582 | 29.29350 | 37037 ft | 497 kts | 159° |
| 2026-05-05 20:46 | 40.05317 | 29.30899 | 37050 ft | 498 kts | 160° |
| 2026-05-05 20:46 | 39.98859 | 29.33959 | 37051 ft | 493 kts | 160° |
| 2026-05-05 20:47 | 39.92402 | 29.37015 | 37058 ft | 494 kts | 160° |
| 2026-05-05 20:47 | 39.85948 | 29.40067 | 37055 ft | 495 kts | 160° |
| 2026-05-05 20:48 | 39.79520 | 29.43378 | 37063 ft | 496 kts | 155° |
| 2026-05-05 20:48 | 39.73274 | 29.47042 | 37063 ft | 495 kts | 155° |
| 2026-05-05 20:49 | 39.66960 | 29.50747 | 37064 ft | 496 kts | 155° |
| 2026-05-05 20:49 | 39.60671 | 29.54263 | 37062 ft | 495 kts | 159° |
| 2026-05-05 20:50 | 39.54215 | 29.57441 | 37062 ft | 495 kts | 159° |
| 2026-05-05 20:50 | 39.47806 | 29.60605 | 37060 ft | 495 kts | 159° |
| 2026-05-05 20:51 | 39.41346 | 29.63802 | 37052 ft | 498 kts | 159° |
| 2026-05-05 20:51 | 39.34900 | 29.66995 | 37052 ft | 496 kts | 160° |
| 2026-05-05 20:52 | 39.28464 | 29.70181 | 37051 ft | 497 kts | 160° |
| 2026-05-05 20:52 | 39.21989 | 29.73383 | 37049 ft | 495 kts | 160° |
| 2026-05-05 20:53 | 39.15568 | 29.76554 | 37044 ft | 495 kts | 160° |
| 2026-05-05 20:53 | 39.09148 | 29.79718 | 37044 ft | 495 kts | 160° |
| 2026-05-05 20:54 | 39.02671 | 29.82905 | 37042 ft | 496 kts | 160° |
| 2026-05-05 20:54 | 38.96230 | 29.86067 | 37045 ft | 495 kts | 160° |
| 2026-05-05 20:55 | 38.89794 | 29.89221 | 37043 ft | 495 kts | 160° |
| 2026-05-05 20:55 | 38.83327 | 29.92325 | 37023 ft | 492 kts | 161° |
| 2026-05-05 20:56 | 38.80162 | 29.93828 | 36768 ft | 483 kts | 161° |
| 2026-05-05 20:56 | 38.77049 | 29.95305 | 36100 ft | 483 kts | 161° |
| 2026-05-05 20:56 | 38.73885 | 29.96804 | 35198 ft | 490 kts | 160° |
| 2026-05-05 20:56 | 38.70666 | 29.98329 | 34233 ft | 499 kts | 160° |
| 2026-05-05 20:57 | 38.67372 | 29.99888 | 33338 ft | 503 kts | 160° |
| 2026-05-05 20:57 | 38.64139 | 30.01418 | 32652 ft | 501 kts | 160° |
| 2026-05-05 20:57 | 38.60865 | 30.02966 | 32012 ft | 498 kts | 160° |
| 2026-05-05 20:57 | 38.57608 | 30.04505 | 31308 ft | 496 kts | 160° |
| 2026-05-05 20:58 | 38.54378 | 30.06029 | 30508 ft | 497 kts | 159° |
| 2026-05-05 20:58 | 38.51165 | 30.07544 | 29814 ft | 495 kts | 160° |
| 2026-05-05 20:58 | 38.47957 | 30.09055 | 29310 ft | 488 kts | 159° |
| 2026-05-05 20:58 | 38.44760 | 30.10560 | 28792 ft | 483 kts | 160° |
| 2026-05-05 20:59 | 38.41624 | 30.12035 | 28235 ft | 478 kts | 160° |
| 2026-05-05 20:59 | 38.38535 | 30.13487 | 27665 ft | 474 kts | 160° |
| 2026-05-05 20:59 | 38.35468 | 30.14926 | 27079 ft | 470 kts | 160° |
| 2026-05-05 20:59 | 38.32417 | 30.16353 | 26512 ft | 466 kts | 160° |
| 2026-05-05 21:00 | 38.29390 | 30.17746 | 25968 ft | 461 kts | 160° |
| 2026-05-05 21:00 | 38.26378 | 30.19127 | 25423 ft | 456 kts | 160° |
| 2026-05-05 21:00 | 38.23433 | 30.20478 | 24853 ft | 452 kts | 161° |
| 2026-05-05 21:00 | 38.20481 | 30.21833 | 24329 ft | 447 kts | 160° |
| 2026-05-05 21:01 | 38.17592 | 30.23159 | 23769 ft | 443 kts | 161° |
| 2026-05-05 21:01 | 38.14687 | 30.24492 | 23296 ft | 430 kts | 161° |
| 2026-05-05 21:01 | 38.11928 | 30.25757 | 22862 ft | 411 kts | 161° |
| 2026-05-05 21:01 | 38.09293 | 30.26964 | 22469 ft | 393 kts | 161° |
| 2026-05-05 21:02 | 38.06783 | 30.28113 | 22160 ft | 376 kts | 161° |
| 2026-05-05 21:02 | 38.04367 | 30.29218 | 21778 ft | 363 kts | 161° |
| 2026-05-05 21:02 | 38.02056 | 30.30383 | 21199 ft | 358 kts | 152° |
| 2026-05-05 21:02 | 37.99987 | 30.32079 | 20519 ft | 355 kts | 142° |
| 2026-05-05 21:03 | 37.98035 | 30.33994 | 19850 ft | 352 kts | 142° |
| 2026-05-05 21:03 | 37.96117 | 30.35901 | 19192 ft | 349 kts | 142° |
| 2026-05-05 21:03 | 37.94206 | 30.37800 | 18576 ft | 348 kts | 142° |
| 2026-05-05 21:03 | 37.92312 | 30.39680 | 18197 ft | 346 kts | 142° |
| 2026-05-05 21:04 | 37.90411 | 30.41565 | 17871 ft | 342 kts | 142° |
| 2026-05-05 21:04 | 37.88455 | 30.43266 | 17495 ft | 340 kts | 154° |
| 2026-05-05 21:04 | 37.86166 | 30.44096 | 17486 ft | 355 kts | 177° |
| 2026-05-05 21:04 | 37.83665 | 30.43799 | 17568 ft | 375 kts | 198° |
| 2026-05-05 21:05 | 37.81116 | 30.42672 | 17587 ft | 399 kts | 202° |
| 2026-05-05 21:05 | 37.78450 | 30.41394 | 17582 ft | 412 kts | 203° |
| 2026-05-05 21:05 | 37.75812 | 30.40131 | 17569 ft | 397 kts | 203° |
| 2026-05-05 21:05 | 37.73313 | 30.38937 | 17227 ft | 376 kts | 203° |
| 2026-05-05 21:06 | 37.70940 | 30.37804 | 17290 ft | 348 kts | 203° |
| 2026-05-05 21:06 | 37.68751 | 30.36761 | 17374 ft | 332 kts | 204° |
| 2026-05-05 21:06 | 37.66607 | 30.35737 | 17372 ft | 326 kts | 204° |
| 2026-05-05 21:06 | 37.64492 | 30.34727 | 17368 ft | 321 kts | 204° |
| 2026-05-05 21:07 | 37.62424 | 30.33738 | 17354 ft | 318 kts | 204° |
| 2026-05-05 21:07 | 37.60355 | 30.32750 | 17089 ft | 315 kts | 204° |
| 2026-05-05 21:07 | 37.58327 | 30.31781 | 16681 ft | 316 kts | 204° |
| 2026-05-05 21:07 | 37.56264 | 30.30795 | 16329 ft | 315 kts | 204° |
| 2026-05-05 21:08 | 37.54213 | 30.29817 | 16035 ft | 312 kts | 203° |
| 2026-05-05 21:08 | 37.52203 | 30.28811 | 15713 ft | 309 kts | 207° |
| 2026-05-05 21:08 | 37.50207 | 30.27829 | 15408 ft | 310 kts | 201° |
| 2026-05-05 21:08 | 37.48101 | 30.27004 | 15509 ft | 316 kts | 198° |
| 2026-05-05 21:09 | 37.45995 | 30.26333 | 15526 ft | 313 kts | 195° |
| 2026-05-05 21:09 | 37.43868 | 30.25695 | 15533 ft | 312 kts | 197° |
| 2026-05-05 21:09 | 37.41708 | 30.25051 | 15539 ft | 331 kts | 194° |
| 2026-05-05 21:09 | 37.39461 | 30.24562 | 15530 ft | 322 kts | 191° |
| 2026-05-05 21:10 | 37.37261 | 30.24198 | 15529 ft | 322 kts | 189° |
| 2026-05-05 21:10 | 37.35017 | 30.23869 | 15497 ft | 319 kts | 189° |
| 2026-05-05 21:10 | 37.32841 | 30.23567 | 15313 ft | 312 kts | 189° |
| 2026-05-05 21:10 | 37.30686 | 30.23271 | 14997 ft | 310 kts | 189° |
| 2026-05-05 21:11 | 37.28535 | 30.22975 | 14650 ft | 309 kts | 189° |
| 2026-05-05 21:11 | 37.26413 | 30.22736 | 14364 ft | 307 kts | 184° |
| 2026-05-05 21:11 | 37.24292 | 30.22826 | 14063 ft | 307 kts | 175° |
| 2026-05-05 21:11 | 37.22181 | 30.23300 | 13741 ft | 307 kts | 165° |
| 2026-05-05 21:12 | 37.20303 | 30.24519 | 13387 ft | 307 kts | 139° |
| 2026-05-05 21:12 | 37.19035 | 30.26569 | 13308 ft | 294 kts | 113° |
| 2026-05-05 21:12 | 37.18566 | 30.28997 | 13226 ft | 280 kts | 90° |
| 2026-05-05 21:12 | 37.18557 | 30.31395 | 13005 ft | 276 kts | 86° |
| 2026-05-05 21:13 | 37.18591 | 30.33816 | 12735 ft | 275 kts | 86° |
| 2026-05-05 21:13 | 37.18627 | 30.36215 | 12466 ft | 273 kts | 86° |
| 2026-05-05 21:13 | 37.18662 | 30.38571 | 12206 ft | 272 kts | 86° |
| 2026-05-05 21:13 | 37.18696 | 30.40920 | 11949 ft | 271 kts | 86° |
| 2026-05-05 21:14 | 37.18731 | 30.43284 | 11668 ft | 270 kts | 86° |
| 2026-05-05 21:14 | 37.18764 | 30.45624 | 11430 ft | 268 kts | 86° |
| 2026-05-05 21:14 | 37.18797 | 30.47946 | 11175 ft | 267 kts | 86° |
| 2026-05-05 21:14 | 37.18829 | 30.50248 | 11041 ft | 262 kts | 88° |
| 2026-05-05 21:15 | 37.18722 | 30.52565 | 11027 ft | 267 kts | 93° |
| 2026-05-05 21:15 | 37.18543 | 30.54880 | 11027 ft | 267 kts | 94° |
| 2026-05-05 21:15 | 37.18363 | 30.57175 | 11024 ft | 267 kts | 94° |
| 2026-05-05 21:15 | 37.18183 | 30.59489 | 11026 ft | 267 kts | 94° |
| 2026-05-05 21:16 | 37.18003 | 30.61820 | 11025 ft | 266 kts | 94° |
| 2026-05-05 21:16 | 37.17825 | 30.64123 | 11037 ft | 266 kts | 94° |
| 2026-05-05 21:16 | 37.17646 | 30.66426 | 11021 ft | 267 kts | 94° |
| 2026-05-05 21:16 | 37.17466 | 30.68734 | 11025 ft | 267 kts | 94° |
| 2026-05-05 21:17 | 37.17220 | 30.71038 | 10887 ft | 269 kts | 105° |
| 2026-05-05 21:17 | 37.16305 | 30.73145 | 10201 ft | 285 kts | 134° |
| 2026-05-05 21:17 | 37.14728 | 30.74609 | 10076 ft | 276 kts | 148° |
| 2026-05-05 21:17 | 37.13151 | 30.75847 | 10035 ft | 266 kts | 149° |
| 2026-05-05 21:18 | 37.11578 | 30.77071 | 9819 ft | 263 kts | 149° |
| 2026-05-05 21:18 | 37.10033 | 30.78272 | 9552 ft | 262 kts | 149° |
| 2026-05-05 21:18 | 37.08486 | 30.79474 | 9304 ft | 261 kts | 148° |
| 2026-05-05 21:18 | 37.06949 | 30.80668 | 9215 ft | 257 kts | 148° |
| 2026-05-05 21:19 | 37.05418 | 30.81856 | 9207 ft | 260 kts | 148° |
| 2026-05-05 21:19 | 37.03885 | 30.83045 | 9199 ft | 260 kts | 148° |
| 2026-05-05 21:19 | 37.02330 | 30.84251 | 9199 ft | 262 kts | 148° |
| 2026-05-05 21:19 | 37.00782 | 30.85451 | 9196 ft | 262 kts | 148° |
| 2026-05-05 21:20 | 36.99239 | 30.86645 | 9195 ft | 261 kts | 148° |
| 2026-05-05 21:20 | 36.97681 | 30.87852 | 9197 ft | 262 kts | 148° |
| 2026-05-05 21:20 | 36.96146 | 30.89040 | 9196 ft | 262 kts | 148° |
| 2026-05-05 21:20 | 36.94583 | 30.90250 | 9196 ft | 261 kts | 148° |
| 2026-05-05 21:21 | 36.93038 | 30.91444 | 9194 ft | 261 kts | 149° |
| 2026-05-05 21:21 | 36.91496 | 30.92628 | 9189 ft | 261 kts | 152° |
| 2026-05-05 21:21 | 36.89775 | 30.93318 | 9181 ft | 258 kts | 176° |
| 2026-05-05 21:21 | 36.87947 | 30.93312 | 8979 ft | 275 kts | 185° |
| 2026-05-05 21:22 | 36.86020 | 30.93144 | 8647 ft | 278 kts | 186° |
| 2026-05-05 21:22 | 36.84069 | 30.92951 | 8233 ft | 282 kts | 185° |
| 2026-05-05 21:22 | 36.82101 | 30.92755 | 7882 ft | 283 kts | 185° |
| 2026-05-05 21:22 | 36.80132 | 30.92560 | 7552 ft | 283 kts | 185° |
| 2026-05-05 21:23 | 36.78199 | 30.92362 | 7417 ft | 275 kts | 185° |
| 2026-05-05 21:23 | 36.76318 | 30.92168 | 7405 ft | 262 kts | 185° |
| 2026-05-05 21:23 | 36.74504 | 30.91982 | 7188 ft | 260 kts | 185° |
| 2026-05-05 21:23 | 36.72711 | 30.91794 | 6908 ft | 261 kts | 185° |
| 2026-05-05 21:24 | 36.70891 | 30.91598 | 6608 ft | 260 kts | 185° |
| 2026-05-05 21:24 | 36.69117 | 30.91400 | 6407 ft | 249 kts | 185° |
| 2026-05-05 21:24 | 36.67390 | 30.91201 | 6205 ft | 248 kts | 185° |
| 2026-05-05 21:24 | 36.65695 | 30.91003 | 5974 ft | 247 kts | 185° |
| 2026-05-05 21:25 | 36.64000 | 30.90802 | 5890 ft | 239 kts | 185° |
| 2026-05-05 21:25 | 36.62429 | 30.90314 | 5846 ft | 228 kts | 211° |
| 2026-05-05 21:25 | 36.61326 | 30.88966 | 5614 ft | 223 kts | 245° |
| 2026-05-05 21:25 | 36.61011 | 30.87168 | 5461 ft | 207 kts | 272° |
| 2026-05-05 21:26 | 36.61073 | 30.85447 | 5341 ft | 192 kts | 275° |
| 2026-05-05 21:26 | 36.61146 | 30.83863 | 5291 ft | 175 kts | 275° |
| 2026-05-05 21:26 | 36.61211 | 30.82396 | 5176 ft | 165 kts | 275° |
| 2026-05-05 21:26 | 36.61268 | 30.81015 | 4978 ft | 155 kts | 276° |
| 2026-05-05 21:27 | 36.61317 | 30.79712 | 4493 ft | 151 kts | 275° |
| 2026-05-05 21:27 | 36.61543 | 30.78490 | 4042 ft | 142 kts | 308° |
| 2026-05-05 21:27 | 36.62350 | 30.77812 | 3985 ft | 142 kts | 348° |
| 2026-05-05 21:27 | 36.63341 | 30.77661 | 3969 ft | 141 kts | 353° |
| 2026-05-05 21:28 | 36.64323 | 30.77523 | 3937 ft | 141 kts | 354° |
| 2026-05-05 21:28 | 36.65268 | 30.77257 | 3898 ft | 140 kts | 338° |
| 2026-05-05 21:28 | 36.66217 | 30.76854 | 3847 ft | 146 kts | 354° |
| 2026-05-05 21:28 | 36.67209 | 30.76780 | 3798 ft | 140 kts | 352° |
| 2026-05-05 21:29 | 36.68118 | 30.76386 | 3760 ft | 138 kts | 349° |
| 2026-05-05 21:29 | 36.69075 | 30.76397 | 3714 ft | 138 kts | 5° |
| 2026-05-05 21:29 | 36.70014 | 30.76535 | 3666 ft | 135 kts | 6° |
| 2026-05-05 21:29 | 36.70965 | 30.76672 | 3561 ft | 136 kts | 6° |
| 2026-05-05 21:30 | 36.71893 | 30.76801 | 3398 ft | 134 kts | 5° |
| 2026-05-05 21:30 | 36.72817 | 30.76927 | 3234 ft | 135 kts | 5° |
| 2026-05-05 21:30 | 36.73753 | 30.77054 | 3061 ft | 133 kts | 5° |
| 2026-05-05 21:30 | 36.74664 | 30.77178 | 2893 ft | 133 kts | 5° |
| 2026-05-05 21:31 | 36.75593 | 30.77304 | 2721 ft | 132 kts | 6° |
| 2026-05-05 21:31 | 36.76510 | 30.77429 | 2550 ft | 131 kts | 6° |
| 2026-05-05 21:31 | 36.77417 | 30.77552 | 2378 ft | 132 kts | 6° |
| 2026-05-05 21:31 | 36.78331 | 30.77676 | 2203 ft | 132 kts | 6° |
| 2026-05-05 21:32 | 36.79245 | 30.77801 | 2028 ft | 132 kts | 6° |
| 2026-05-05 21:32 | 36.80168 | 30.77926 | 1849 ft | 131 kts | 6° |
| 2026-05-05 21:32 | 36.81079 | 30.78050 | 1673 ft | 131 kts | 6° |
| 2026-05-05 21:32 | 36.81992 | 30.78174 | 1495 ft | 131 kts | 6° |
| 2026-05-05 21:33 | 36.82904 | 30.78298 | 1317 ft | 131 kts | 6° |
| 2026-05-05 21:33 | 36.83814 | 30.78436 | 1121 ft | 131 kts | 8° |
| 2026-05-05 21:33 | 36.84711 | 30.78590 | 909 ft | 130 kts | 6° |
| 2026-05-05 21:33 | 36.85620 | 30.78701 | 683 ft | 129 kts | 5° |
| 2026-05-05 21:34 | 36.86512 | 30.78814 | 486 ft | 130 kts | 5° |
| 2026-05-05 21:34 | 36.87409 | 30.78932 | 336 ft | 126 kts | 4° |
| 2026-05-05 21:34 | 36.88285 | 30.79034 | 228 ft | 126 kts | 4° |
| 2026-05-05 21:34 | 36.89120 | 30.79142 | 183 ft | 104 kts | 5° |
| 2026-05-05 21:35 | 36.89702 | 30.79215 | 183 ft | 65 kts | 6° |
| 2026-05-05 21:35 | 36.90065 | 30.79264 | 183 ft | 38 kts | 8° |
| 2026-05-05 21:35 | 36.90321 | 30.79303 | 183 ft | 35 kts | 5° |
| 2026-05-05 21:35 | 36.90560 | 30.79337 | 183 ft | 21 kts | 8° |
| 2026-05-05 21:36 | 36.90672 | 30.79383 | 182 ft | 18 kts | 31° |
| 2026-05-05 21:36 | 36.90783 | 30.79490 | 177 ft | 22 kts | 48° |
| 2026-05-05 21:36 | 36.90895 | 30.79634 | 175 ft | 23 kts | 75° |
| 2026-05-05 21:36 | 36.90889 | 30.79832 | 175 ft | 23 kts | 97° |
| 2026-05-05 21:37 | 36.90886 | 30.79856 | 175 ft | 2 kts | 96° |
| 2026-05-05 21:37 | 36.90890 | 30.79891 | 176 ft | 5 kts | 64° |
| 2026-05-05 21:37 | 36.90924 | 30.79939 | 176 ft | 9 kts | 30° |
| 2026-05-05 21:37 | 36.91009 | 30.79969 | 175 ft | 15 kts | 9° |
| 2026-05-05 21:38 | 36.91116 | 30.79983 | 175 ft | 14 kts | 5° |
| 2026-05-05 21:38 | 36.91206 | 30.79976 | 175 ft | 11 kts | 353° |
| 2026-05-05 21:38 | 36.91247 | 30.80014 | 177 ft | 6 kts | 85° |
| 2026-05-05 21:38 | 36.91247 | 30.80039 | 178 ft | 0 kts | 92° |
| 2026-05-05 21:39 | 36.91247 | 30.80042 | 178 ft | 0 kts | 93° |